Time;durP1;ratioP1;P1;durP2;ratioP2;P2;SDS_P1;SDS_P2;PMS_P1;PMS_P2;Temp;Humidity;BMP_temperature;BMP_pressure;BME280_temperature;BME280_humidity;BME280_pressure;Samples;Min_cycle;Max_cycle;Signal;HPM_P1;HPM_P2
2021/10/30 00:00:11;;;;;;;18.30;12.30;;;;;;;;;;5059256;28;20544;-71
2021/10/30 00:02:42;;;;;;;10.03;7.70;;;;;;;;;;5059117;28;20446;-71
2021/10/30 00:05:12;;;;;;;15.10;11.80;;;;;;;;;;5059044;28;20484;-72
2021/10/30 00:07:40;;;;;;;13.67;11.10;;;;;;;;;;5059890;28;20473;-72
2021/10/30 00:10:13;;;;;;;9.20;7.00;;;;;;;;;;5059105;28;20457;-72
2021/10/30 00:12:41;;;;;;;10.60;5.70;;;;;;;;;;5058954;28;20462;-71
2021/10/30 00:15:14;;;;;;;13.83;5.53;;;;;;;;;;5059271;28;20485;-72
2021/10/30 00:17:45;;;;;;;7.70;4.90;;;;;;;;;;5059291;28;20441;-71
2021/10/30 00:20:13;;;;;;;7.63;4.50;;;;;;;;;;5057489;28;20477;-72
2021/10/30 00:22:41;;;;;;;11.33;5.23;;;;;;;;;;5058674;28;20522;-72
2021/10/30 00:25:11;;;;;;;6.97;5.30;;;;;;;;;;5059200;28;20468;-72
2021/10/30 00:27:43;;;;;;;5.83;4.47;;;;;;;;;;5058112;28;20861;-72
2021/10/30 00:30:11;;;;;;;7.73;4.10;;;;;;;;;;5058520;28;20564;-72
2021/10/30 00:32:38;;;;;;;6.90;4.87;;;;;;;;;;5058627;28;20463;-71
2021/10/30 00:35:09;;;;;;;8.03;4.07;;;;;;;;;;5058800;28;20489;-72
2021/10/30 00:37:37;;;;;;;6.10;3.60;;;;;;;;;;5059283;28;20458;-71
2021/10/30 00:40:06;;;;;;;6.70;3.43;;;;;;;;;;5058268;28;20796;-72
2021/10/30 00:42:42;;;;;;;6.33;3.90;;;;;;;;;;5058666;28;20484;-71
2021/10/30 00:45:10;;;;;;;7.03;3.53;;;;;;;;;;5059335;28;20445;-72
2021/10/30 00:47:38;;;;;;;6.10;3.90;;;;;;;;;;5057995;28;20465;-72
2021/10/30 00:50:07;;;;;;;8.50;4.43;;;;;;;;;;5059240;28;20749;-71
2021/10/30 00:52:36;;;;;;;9.77;4.33;;;;;;;;;;5059112;28;20461;-72
2021/10/30 00:55:04;;;;;;;4.93;3.80;;;;;;;;;;5058263;28;20481;-72
2021/10/30 00:57:32;;;;;;;5.90;3.80;;;;;;;;;;5058828;28;20492;-71
2021/10/30 01:00:03;;;;;;;5.73;3.57;;;;;;;;;;5058467;28;20456;-71
2021/10/30 01:02:34;;;;;;;8.40;5.30;;;;;;;;;;5058946;28;20978;-71
2021/10/30 01:05:02;;;;;;;6.57;4.00;;;;;;;;;;5058340;28;20453;-71
2021/10/30 01:07:31;;;;;;;9.90;5.30;;;;;;;;;;5057536;28;20569;-72
2021/10/30 01:09:59;;;;;;;7.00;4.27;;;;;;;;;;5057834;28;20450;-71
2021/10/30 01:12:27;;;;;;;5.40;3.63;;;;;;;;;;5056334;28;20465;-71
2021/10/30 01:14:56;;;;;;;7.60;3.87;;;;;;;;;;5057976;28;20485;-71
2021/10/30 01:17:25;;;;;;;7.07;4.13;;;;;;;;;;5057873;28;20466;-71
2021/10/30 01:19:55;;;;;;;5.73;3.80;;;;;;;;;;5057337;28;20537;-71
2021/10/30 01:22:23;;;;;;;7.50;4.37;;;;;;;;;;5057506;28;20460;-71
2021/10/30 01:24:51;;;;;;;6.60;4.23;;;;;;;;;;5056920;28;20484;-71
2021/10/30 01:27:20;;;;;;;6.17;4.80;;;;;;;;;;5057837;28;20465;-71
2021/10/30 01:29:50;;;;;;;8.13;5.20;;;;;;;;;;5057645;28;20438;-71
2021/10/30 01:32:21;;;;;;;4.10;3.43;;;;;;;;;;5057408;28;20461;-72
2021/10/30 01:34:49;;;;;;;5.93;3.30;;;;;;;;;;5057571;28;20489;-71
2021/10/30 01:37:18;;;;;;;7.33;3.67;;;;;;;;;;5057506;28;20464;-72
2021/10/30 01:39:46;;;;;;;5.77;3.80;;;;;;;;;;5057857;28;20473;-71
2021/10/30 01:42:13;;;;;;;9.10;3.93;;;;;;;;;;5057273;28;20488;-71
2021/10/30 01:44:41;;;;;;;5.80;3.93;;;;;;;;;;5057364;28;20456;-71
2021/10/30 01:47:09;;;;;;;9.97;4.07;;;;;;;;;;5057892;28;20520;-71
2021/10/30 01:49:37;;;;;;;6.57;3.63;;;;;;;;;;5057370;28;20464;-71
2021/10/30 01:52:05;;;;;;;4.90;3.90;;;;;;;;;;5057715;28;20522;-71
2021/10/30 01:54:35;;;;;;;10.47;3.83;;;;;;;;;;5057543;28;20579;-71
2021/10/30 01:57:02;;;;;;;6.77;4.23;;;;;;;;;;5057530;28;20472;-71
2021/10/30 01:59:30;;;;;;;6.47;4.23;;;;;;;;;;5057551;28;20461;-71
2021/10/30 02:01:58;;;;;;;6.40;4.63;;;;;;;;;;5057443;28;20730;-71
2021/10/30 02:04:26;;;;;;;5.70;4.10;;;;;;;;;;5057742;28;20464;-71
2021/10/30 02:06:54;;;;;;;8.33;4.30;;;;;;;;;;5055626;28;20444;-71
2021/10/30 02:09:21;;;;;;;7.20;3.80;;;;;;;;;;5057390;28;20549;-71
2021/10/30 02:11:51;;;;;;;5.17;3.43;;;;;;;;;;5056571;28;20781;-71
2021/10/30 02:14:19;;;;;;;6.30;3.97;;;;;;;;;;5056931;28;20631;-71
2021/10/30 02:16:47;;;;;;;7.10;4.53;;;;;;;;;;5058145;28;20464;-71
2021/10/30 02:19:16;;;;;;;7.87;3.97;;;;;;;;;;5057125;28;20489;-71
2021/10/30 02:21:46;;;;;;;6.20;4.67;;;;;;;;;;5057112;28;20744;-70
2021/10/30 02:24:14;;;;;;;5.50;4.03;;;;;;;;;;5056634;28;20837;-72
2021/10/30 02:26:41;;;;;;;4.30;3.33;;;;;;;;;;5056642;28;20484;-71
2021/10/30 02:29:11;;;;;;;5.73;4.30;;;;;;;;;;5057132;28;20457;-71
2021/10/30 02:31:39;;;;;;;5.20;3.90;;;;;;;;;;5056227;28;20515;-72
2021/10/30 02:34:07;;;;;;;11.30;3.90;;;;;;;;;;5056664;28;20465;-72
2021/10/30 02:36:35;;;;;;;6.80;4.13;;;;;;;;;;5056488;28;20449;-71
2021/10/30 02:39:03;;;;;;;5.87;3.70;;;;;;;;;;5056333;28;20800;-71
2021/10/30 02:41:31;;;;;;;7.13;4.77;;;;;;;;;;5057300;28;20461;-71
2021/10/30 02:43:58;;;;;;;7.70;4.40;;;;;;;;;;5056528;28;20837;-71
2021/10/30 02:46:28;;;;;;;5.80;4.00;;;;;;;;;;5056988;28;20517;-71
2021/10/30 02:48:56;;;;;;;6.80;3.97;;;;;;;;;;5056699;28;20706;-72
2021/10/30 02:51:23;;;;;;;9.00;4.97;;;;;;;;;;5056366;28;20516;-72
2021/10/30 02:53:51;;;;;;;6.97;4.90;;;;;;;;;;5056873;28;20628;-72
2021/10/30 02:56:19;;;;;;;5.63;4.13;;;;;;;;;;5056405;28;20492;-71
2021/10/30 02:58:47;;;;;;;11.80;5.50;;;;;;;;;;5055991;28;20454;-72
2021/10/30 03:01:20;;;;;;;5.03;3.80;;;;;;;;;;5056947;28;20481;-72
2021/10/30 03:03:50;;;;;;;6.40;3.83;;;;;;;;;;5056152;28;20753;-71
2021/10/30 03:06:21;;;;;;;6.40;5.27;;;;;;;;;;5056213;28;20848;-71
2021/10/30 03:08:49;;;;;;;5.57;3.70;;;;;;;;;;5056360;28;20461;-71
2021/10/30 03:11:17;;;;;;;5.63;4.40;;;;;;;;;;5054427;28;20544;-71
2021/10/30 03:13:45;;;;;;;6.03;4.47;;;;;;;;;;5056317;28;20456;-71
2021/10/30 03:16:13;;;;;;;6.10;4.30;;;;;;;;;;5055675;28;20579;-71
2021/10/30 03:18:44;;;;;;;5.40;3.50;;;;;;;;;;5058501;28;20480;-71
2021/10/30 03:21:23;;;;;;;5.83;4.50;;;;;;;;;;5060193;28;20457;-71
2021/10/30 03:23:51;;;;;;;6.63;5.17;;;;;;;;;;5060124;28;20464;-71
2021/10/30 03:26:19;;;;;;;5.80;4.57;;;;;;;;;;5060143;28;20461;-71
2021/10/30 03:28:47;;;;;;;8.20;5.20;;;;;;;;;;5060066;28;20453;-71
2021/10/30 03:31:15;;;;;;;7.63;4.60;;;;;;;;;;5061038;28;20457;-71
2021/10/30 03:33:42;;;;;;;6.33;4.10;;;;;;;;;;5059851;28;20453;-71
2021/10/30 03:36:10;;;;;;;6.10;4.43;;;;;;;;;;5059998;28;20519;-71
2021/10/30 03:38:39;;;;;;;5.63;3.90;;;;;;;;;;5060979;28;20814;-71
2021/10/30 03:41:07;;;;;;;6.80;5.17;;;;;;;;;;5059691;28;20471;-71
2021/10/30 03:43:35;;;;;;;8.50;4.80;;;;;;;;;;5061321;28;20460;-71
2021/10/30 03:46:03;;;;;;;7.90;5.07;;;;;;;;;;5060862;28;20445;-72
2021/10/30 03:48:31;;;;;;;7.87;7.27;;;;;;;;;;5060143;28;20457;-71
2021/10/30 03:50:58;;;;;;;7.30;5.07;;;;;;;;;;5061100;28;20518;-72
2021/10/30 03:53:28;;;;;;;7.67;5.67;;;;;;;;;;5059944;28;20527;-71
2021/10/30 03:55:57;;;;;;;6.73;5.03;;;;;;;;;;5060632;28;20481;-71
2021/10/30 03:58:25;;;;;;;7.93;5.10;;;;;;;;;;5060267;28;20445;-71
2021/10/30 04:00:53;;;;;;;9.20;5.50;;;;;;;;;;5059762;28;20458;-71
2021/10/30 04:03:21;;;;;;;8.33;5.47;;;;;;;;;;5061036;28;20790;-72
2021/10/30 04:05:49;;;;;;;7.63;5.60;;;;;;;;;;5060022;28;20526;-71
2021/10/30 04:08:19;;;;;;;7.93;5.77;;;;;;;;;;5059899;28;20492;-71
2021/10/30 04:10:47;;;;;;;8.87;5.30;;;;;;;;;;5058241;28;20456;-71
2021/10/30 04:13:16;;;;;;;9.33;4.80;;;;;;;;;;5059146;28;20464;-71
2021/10/30 04:15:44;;;;;;;6.63;5.00;;;;;;;;;;5059621;28;20943;-71
2021/10/30 04:18:12;;;;;;;8.30;5.83;;;;;;;;;;5055812;28;20570;-72
2021/10/30 04:20:41;;;;;;;7.07;5.57;;;;;;;;;;5038918;28;20854;-72
2021/10/30 04:23:09;;;;;;;8.37;5.90;;;;;;;;;;5040097;28;20458;-71
2021/10/30 04:25:37;;;;;;;9.53;6.70;;;;;;;;;;5040303;28;20873;-71
2021/10/30 04:28:04;;;;;;;9.67;5.73;;;;;;;;;;5041119;28;20557;-71
2021/10/30 04:30:34;;;;;;;7.93;6.30;;;;;;;;;;5055227;28;20497;-72
2021/10/30 04:33:01;;;;;;;7.93;5.50;;;;;;;;;;5040174;28;20556;-71
2021/10/30 04:35:30;;;;;;;11.63;5.97;;;;;;;;;;5038942;28;20486;-71
2021/10/30 04:37:58;;;;;;;10.53;6.23;;;;;;;;;;5038974;28;20745;-71
2021/10/30 04:40:25;;;;;;;11.10;6.70;;;;;;;;;;5039088;28;20454;-71
2021/10/30 04:42:53;;;;;;;10.17;5.87;;;;;;;;;;5038120;28;20473;-71
2021/10/30 04:45:21;;;;;;;13.83;7.43;;;;;;;;;;5040700;28;20454;-71
2021/10/30 04:47:51;;;;;;;16.40;6.63;;;;;;;;;;5038610;28;20915;-71
2021/10/30 04:50:18;;;;;;;9.03;6.47;;;;;;;;;;5058854;28;20461;-72
2021/10/30 04:52:46;;;;;;;13.00;7.17;;;;;;;;;;5058661;28;20547;-72
2021/10/30 04:55:14;;;;;;;9.53;7.03;;;;;;;;;;5057929;28;20489;-71
2021/10/30 04:57:42;;;;;;;12.30;8.10;;;;;;;;;;5038567;28;20455;-71
2021/10/30 05:00:12;;;;;;;18.23;7.90;;;;;;;;;;5038685;28;20793;-71
2021/10/30 05:02:39;;;;;;;11.87;7.10;;;;;;;;;;5039098;28;20453;-71
2021/10/30 05:05:09;;;;;;;10.80;6.43;;;;;;;;;;5038910;28;20442;-70
2021/10/30 05:07:37;;;;;;;10.13;6.87;;;;;;;;;;5038082;28;20806;-72
2021/10/30 05:10:05;;;;;;;10.93;6.63;;;;;;;;;;5038036;28;20450;-72
2021/10/30 05:12:33;;;;;;;8.53;6.97;;;;;;;;;;5038177;28;20465;-72
2021/10/30 05:15:03;;;;;;;10.30;6.93;;;;;;;;;;5038987;28;20439;-72
2021/10/30 05:17:31;;;;;;;9.37;7.10;;;;;;;;;;5038361;28;20469;-71
2021/10/30 05:19:59;;;;;;;10.17;7.43;;;;;;;;;;5048472;28;20859;-71
2021/10/30 05:22:29;;;;;;;14.03;7.47;;;;;;;;;;5047451;28;20511;-72
2021/10/30 05:24:57;;;;;;;11.00;7.17;;;;;;;;;;5038422;28;20748;-71
2021/10/30 05:27:25;;;;;;;8.73;7.23;;;;;;;;;;5055675;28;20461;-71
2021/10/30 05:29:53;;;;;;;12.23;6.33;;;;;;;;;;5058207;28;20947;-71
2021/10/30 05:32:21;;;;;;;12.43;7.67;;;;;;;;;;5056686;28;20473;-71
2021/10/30 05:34:48;;;;;;;11.50;7.70;;;;;;;;;;5043076;28;20461;-71
2021/10/30 05:37:16;;;;;;;11.00;7.83;;;;;;;;;;5037946;28;20490;-71
2021/10/30 05:39:45;;;;;;;12.40;7.43;;;;;;;;;;5037521;28;20450;-71
2021/10/30 05:42:13;;;;;;;7.23;5.97;;;;;;;;;;5038548;28;20498;-72
2021/10/30 05:44:41;;;;;;;11.03;7.10;;;;;;;;;;5038185;28;20461;-71
2021/10/30 05:47:11;;;;;;;11.53;6.70;;;;;;;;;;5037879;28;20481;-71
2021/10/30 05:49:39;;;;;;;11.27;7.60;;;;;;;;;;5038761;28;20446;-70
2021/10/30 05:52:07;;;;;;;10.90;6.47;;;;;;;;;;5037641;28;20486;-71
2021/10/30 05:54:36;;;;;;;10.50;7.47;;;;;;;;;;5038012;28;20449;-71
2021/10/30 05:57:05;;;;;;;12.67;7.03;;;;;;;;;;5038411;28;20921;-70
2021/10/30 05:59:33;;;;;;;9.33;6.23;;;;;;;;;;5038136;28;20545;-72
2021/10/30 06:02:04;;;;;;;13.50;9.20;;;;;;;;;;5046341;28;20531;-72
2021/10/30 06:04:32;;;;;;;12.97;8.13;;;;;;;;;;5058495;28;20732;-71
2021/10/30 06:07:00;;;;;;;9.03;6.60;;;;;;;;;;5058556;28;20908;-71
2021/10/30 06:09:29;;;;;;;11.37;7.20;;;;;;;;;;5057321;28;20461;-71
2021/10/30 06:11:57;;;;;;;11.07;7.20;;;;;;;;;;5057242;28;20485;-72
2021/10/30 06:14:26;;;;;;;12.17;7.33;;;;;;;;;;5055836;28;20480;-71
2021/10/30 06:16:57;;;;;;;8.60;7.10;;;;;;;;;;5056838;28;20485;-71
2021/10/30 06:19:25;;;;;;;13.53;6.20;;;;;;;;;;5056639;28;20454;-70
2021/10/30 06:21:53;;;;;;;9.27;6.33;;;;;;;;;;5056090;28;20458;-71
2021/10/30 06:24:21;;;;;;;12.27;7.47;;;;;;;;;;5056196;28;20471;-70
2021/10/30 06:26:49;;;;;;;9.53;6.93;;;;;;;;;;5057007;28;20875;-71
2021/10/30 06:29:17;;;;;;;11.63;8.30;;;;;;;;;;5056027;28;20469;-71
2021/10/30 06:31:47;;;;;;;11.93;8.83;;;;;;;;;;5055895;28;20450;-71
2021/10/30 06:34:15;;;;;;;12.50;8.33;;;;;;;;;;5055908;28;20804;-71
2021/10/30 06:36:43;;;;;;;11.70;8.20;;;;;;;;;;5056974;28;20481;-71
2021/10/30 06:39:11;;;;;;;9.20;7.27;;;;;;;;;;5056826;28;20546;-70
2021/10/30 06:41:39;;;;;;;9.60;6.60;;;;;;;;;;5055979;28;20532;-71
2021/10/30 06:44:07;;;;;;;10.20;6.77;;;;;;;;;;5056116;28;20550;-71
2021/10/30 06:46:35;;;;;;;13.80;8.50;;;;;;;;;;5054828;28;20457;-71
2021/10/30 06:49:08;;;;;;;10.53;6.13;;;;;;;;;;5056383;28;20457;-71
2021/10/30 06:51:38;;;;;;;15.17;7.73;;;;;;;;;;5056646;28;20461;-71
2021/10/30 06:54:06;;;;;;;9.77;7.80;;;;;;;;;;5054048;28;20461;-71
2021/10/30 06:56:35;;;;;;;9.63;6.93;;;;;;;;;;5055534;28;20477;-71
2021/10/30 06:59:04;;;;;;;13.00;6.70;;;;;;;;;;5055056;28;20532;-72
2021/10/30 07:01:42;;;;;;;12.40;8.07;;;;;;;;;;5056382;28;20484;-72
2021/10/30 07:04:13;;;;;;;10.70;8.70;;;;;;;;;;5055368;28;21019;-71
2021/10/30 07:06:42;;;;;;;14.33;9.00;;;;;;;;;;5056344;28;20477;-73
2021/10/30 07:09:13;;;;;;;9.83;6.70;;;;;;;;;;5056472;28;20721;-72
2021/10/30 07:11:44;;;;;;;12.17;9.03;;;;;;;;;;5053737;28;20461;-71
2021/10/30 07:14:13;;;;;;;11.10;8.77;;;;;;;;;;5056714;28;20891;-71
2021/10/30 07:16:41;;;;;;;9.50;7.27;;;;;;;;;;5055364;28;20546;-71
2021/10/30 07:19:09;;;;;;;8.87;7.07;;;;;;;;;;5055610;28;20462;-71
2021/10/30 07:21:39;;;;;;;11.57;9.23;;;;;;;;;;5055094;28;20465;-71
2021/10/30 07:24:07;;;;;;;13.03;9.93;;;;;;;;;;5055229;28;20461;-71
2021/10/30 07:26:35;;;;;;;9.30;6.63;;;;;;;;;;5056122;28;20445;-72
2021/10/30 07:29:05;;;;;;;11.17;7.53;;;;;;;;;;5055782;28;20922;-72
2021/10/30 07:31:37;;;;;;;11.57;6.03;;;;;;;;;;5056071;28;20460;-71
2021/10/30 07:34:08;;;;;;;9.10;6.37;;;;;;;;;;5055381;28;20457;-72
2021/10/30 07:36:36;;;;;;;12.77;7.50;;;;;;;;;;5055056;28;20477;-72
2021/10/30 07:39:06;;;;;;;8.33;5.60;;;;;;;;;;5050214;28;20592;-71
2021/10/30 07:41:35;;;;;;;7.97;6.30;;;;;;;;;;5053809;28;20449;-72
2021/10/30 07:44:03;;;;;;;14.43;8.83;;;;;;;;;;5055643;28;20453;-71
2021/10/30 07:46:59;;;;;;;11.30;6.23;;;;;;;;;;5050431;28;20445;-73
2021/10/30 07:49:28;;;;;;;8.50;6.20;;;;;;;;;;5042340;28;20484;-70
2021/10/30 07:52:03;;;;;;;8.20;6.07;;;;;;;;;;5055623;28;20467;-71
2021/10/30 07:54:37;;;;;;;12.70;8.00;;;;;;;;;;5055463;28;20467;-71
2021/10/30 07:57:05;;;;;;;10.23;6.70;;;;;;;;;;5056299;28;20488;-71
2021/10/30 07:59:33;;;;;;;8.97;6.03;;;;;;;;;;5074741;28;20580;-71
2021/10/30 08:02:09;;;;;;;10.37;7.77;;;;;;;;;;5070649;28;20556;-72
2021/10/30 08:04:38;;;;;;;7.17;6.30;;;;;;;;;;5041651;28;20936;-71
2021/10/30 08:07:06;;;;;;;10.27;7.63;;;;;;;;;;5039443;28;21034;-71
2021/10/30 08:09:35;;;;;;;10.00;7.17;;;;;;;;;;5038954;28;20454;-71
2021/10/30 08:12:25;;;;;;;9.90;7.03;;;;;;;;;;5040126;28;20540;-72
2021/10/30 08:14:53;;;;;;;15.83;10.00;;;;;;;;;;5053333;28;20526;-71
2021/10/30 08:17:21;;;;;;;9.20;6.20;;;;;;;;;;5041225;28;20969;-71
2021/10/30 08:19:57;;;;;;;14.50;6.17;;;;;;;;;;5052661;28;20549;-73
2021/10/30 08:22:25;;;;;;;9.13;6.27;;;;;;;;;;5058503;28;20461;-70
2021/10/30 08:24:58;;;;;;;9.23;7.13;;;;;;;;;;5052712;28;20565;-70
2021/10/30 08:27:27;;;;;;;12.60;8.23;;;;;;;;;;5056913;28;20857;-70
2021/10/30 08:29:54;;;;;;;10.63;7.30;;;;;;;;;;5048947;28;20471;-70
2021/10/30 08:32:24;;;;;;;11.17;8.20;;;;;;;;;;5056313;28;20458;-70
2021/10/30 08:34:53;;;;;;;10.50;7.20;;;;;;;;;;5051812;28;20853;-70
2021/10/30 08:37:22;;;;;;;9.27;6.47;;;;;;;;;;5054307;28;20517;-71
2021/10/30 08:39:50;;;;;;;7.93;5.53;;;;;;;;;;5052029;28;20466;-73
2021/10/30 08:42:21;;;;;;;9.70;7.47;;;;;;;;;;5045770;28;20916;-71
2021/10/30 08:44:53;;;;;;;16.90;8.63;;;;;;;;;;5050614;28;20470;-72
2021/10/30 08:47:33;;;;;;;11.93;8.03;;;;;;;;;;5038476;28;21073;-72
2021/10/30 08:50:01;;;;;;;9.20;7.13;;;;;;;;;;5053203;28;20481;-71
2021/10/30 08:52:29;;;;;;;12.67;5.90;;;;;;;;;;5057046;28;20556;-71
2021/10/30 08:54:59;;;;;;;7.93;5.27;;;;;;;;;;5050224;28;20494;-71
2021/10/30 08:57:29;;;;;;;8.00;6.50;;;;;;;;;;5056078;28;21002;-70
2021/10/30 09:00:15;;;;;;;8.10;6.40;;;;;;;;;;5052102;28;20453;-71
2021/10/30 09:02:56;;;;;;;9.57;7.40;;;;;;;;;;5052489;28;20449;-72
2021/10/30 09:05:26;;;;;;;6.07;5.27;;;;;;;;;;5042390;28;20472;-71
2021/10/30 09:07:55;;;;;;;8.63;6.10;;;;;;;;;;5049830;28;20457;-71
2021/10/30 09:10:26;;;;;;;7.27;5.83;;;;;;;;;;5052624;28;20751;-71
2021/10/30 09:12:58;;;;;;;8.53;7.00;;;;;;;;;;5049343;28;20612;-71
2021/10/30 09:15:34;;;;;;;9.80;6.97;;;;;;;;;;5038716;28;20532;-71
2021/10/30 09:21:20;;;;;;;9.33;6.67;;;;;;;;;;5045293;28;20457;-72
2021/10/30 09:23:49;;;;;;;10.63;7.33;;;;;;;;;;5054872;28;20841;-72
2021/10/30 09:26:19;;;;;;;13.73;6.70;;;;;;;;;;5052007;28;20441;-72
2021/10/30 09:28:52;;;;;;;8.53;6.73;;;;;;;;;;5055445;28;20857;-71
2021/10/30 09:31:22;;;;;;;8.37;6.93;;;;;;;;;;5049382;28;20473;-71
2021/10/30 09:33:53;;;;;;;13.07;6.73;;;;;;;;;;5055671;28;20879;-72
2021/10/30 09:36:22;;;;;;;11.60;6.70;;;;;;;;;;5057580;28;20445;-72
2021/10/30 09:38:55;;;;;;;8.87;6.17;;;;;;;;;;5057179;28;20484;-72
2021/10/30 09:41:29;;;;;;;11.37;7.40;;;;;;;;;;5055217;28;20467;-72
2021/10/30 09:44:02;;;;;;;11.00;6.77;;;;;;;;;;5045029;28;20924;-72
2021/10/30 09:46:37;;;;;;;10.50;6.83;;;;;;;;;;5038736;28;20454;-73
2021/10/30 09:49:34;;;;;;;7.80;6.40;;;;;;;;;;5059651;28;20538;-71
2021/10/30 09:52:13;;;;;;;7.60;5.93;;;;;;;;;;5047638;28;21093;-72
2021/10/30 09:54:48;;;;;;;9.20;6.50;;;;;;;;;;5060114;28;20457;-71
2021/10/30 09:57:29;;;;;;;8.47;7.17;;;;;;;;;;5055441;28;20477;-72
2021/10/30 10:00:17;;;;;;;10.80;6.90;;;;;;;;;;5054044;28;20749;-73
2021/10/30 10:02:46;;;;;;;6.83;5.30;;;;;;;;;;5054317;28;20761;-73
2021/10/30 10:05:20;;;;;;;15.57;9.47;;;;;;;;;;5053150;28;20753;-72
2021/10/30 10:07:50;;;;;;;7.17;6.10;;;;;;;;;;5056099;28;20545;-71
2021/10/30 10:10:20;;;;;;;11.07;6.73;;;;;;;;;;5054950;28;20962;-72
2021/10/30 10:12:48;;;;;;;9.40;7.53;;;;;;;;;;5055390;28;20942;-70
2021/10/30 10:15:18;;;;;;;7.83;6.20;;;;;;;;;;5055552;28;20542;-72
2021/10/30 10:17:50;;;;;;;8.83;6.47;;;;;;;;;;5053508;28;20483;-72
2021/10/30 10:20:25;;;;;;;9.90;5.73;;;;;;;;;;5053816;28;20829;-73
2021/10/30 10:22:54;;;;;;;10.57;6.90;;;;;;;;;;5054414;28;20532;-72
2021/10/30 10:25:30;;;;;;;8.13;6.60;;;;;;;;;;5055460;28;20556;-73
2021/10/30 10:28:19;;;;;;;10.77;7.30;;;;;;;;;;5055390;28;20441;-74
2021/10/30 10:31:16;;;;;;;12.43;7.40;;;;;;;;;;5056234;28;20504;-73
2021/10/30 10:33:45;;;;;;;9.63;6.80;;;;;;;;;;5055978;28;20707;-74
2021/10/30 10:36:28;;;;;;;18.43;10.53;;;;;;;;;;5056113;28;20450;-72
2021/10/30 10:39:22;;;;;;;9.80;7.17;;;;;;;;;;5054406;28;20483;-73
2021/10/30 10:41:55;;;;;;;12.20;7.10;;;;;;;;;;5053506;28;20453;-72
2021/10/30 10:44:42;;;;;;;12.23;7.67;;;;;;;;;;5056732;28;20468;-72
2021/10/30 10:47:42;;;;;;;8.60;6.77;;;;;;;;;;5055916;28;20442;-72
2021/10/30 10:50:46;;;;;;;9.73;6.70;;;;;;;;;;4993351;28;20468;-72
2021/10/30 10:53:23;;;;;;;8.27;6.40;;;;;;;;;;4991669;28;20467;-72
2021/10/30 10:56:41;;;;;;;8.70;6.80;;;;;;;;;;5049379;28;20772;-72
2021/10/30 10:59:30;;;;;;;8.70;6.43;;;;;;;;;;5052489;28;20485;-73
2021/10/30 11:02:18;;;;;;;11.77;7.33;;;;;;;;;;5054949;28;20473;-71
2021/10/30 11:05:07;;;;;;;9.60;8.57;;;;;;;;;;5049834;28;20442;-72
2021/10/30 11:07:49;;;;;;;9.37;8.00;;;;;;;;;;5058690;28;20738;-73
2021/10/30 11:10:26;;;;;;;14.67;8.67;;;;;;;;;;5051029;28;20454;-71
2021/10/30 11:13:18;;;;;;;11.83;9.40;;;;;;;;;;5055523;28;20453;-70
2021/10/30 11:15:52;;;;;;;12.83;9.10;;;;;;;;;;5053093;28;20472;-72
2021/10/30 11:18:45;;;;;;;7.13;6.43;;;;;;;;;;5054269;28;20888;-71
2021/10/30 11:21:31;;;;;;;9.10;7.43;;;;;;;;;;5056711;28;20461;-71
2021/10/30 11:24:01;;;;;;;16.03;11.00;;;;;;;;;;5054438;28;20679;-71
2021/10/30 11:26:35;;;;;;;11.10;7.70;;;;;;;;;;5055344;28;20840;-71
2021/10/30 11:29:05;;;;;;;10.47;7.67;;;;;;;;;;5054796;28;20446;-71
2021/10/30 11:31:38;;;;;;;12.03;9.27;;;;;;;;;;5053888;28;20501;-71
2021/10/30 11:34:09;;;;;;;10.50;9.33;;;;;;;;;;5055754;28;20437;-71
2021/10/30 11:36:42;;;;;;;16.30;10.77;;;;;;;;;;5053889;28;20461;-70
2021/10/30 11:39:19;;;;;;;13.30;10.13;;;;;;;;;;5054969;28;20491;-72
2021/10/30 11:42:03;;;;;;;14.47;11.87;;;;;;;;;;5057707;28;20544;-71
2021/10/30 11:44:31;;;;;;;14.90;8.97;;;;;;;;;;5057859;28;20548;-71
2021/10/30 11:47:03;;;;;;;15.63;9.77;;;;;;;;;;5058362;28;20563;-70
2021/10/30 11:49:33;;;;;;;14.30;10.93;;;;;;;;;;5056825;28;20846;-71
2021/10/30 11:52:01;;;;;;;12.33;9.90;;;;;;;;;;5051988;28;20757;-72
2021/10/30 11:54:43;;;;;;;18.33;13.13;;;;;;;;;;5058252;28;20529;-72
2021/10/30 11:57:13;;;;;;;13.30;8.67;;;;;;;;;;5056119;28;21054;-72
2021/10/30 11:59:42;;;;;;;16.87;11.47;;;;;;;;;;5057479;28;20453;-71
2021/10/30 12:02:16;;;;;;;12.73;10.57;;;;;;;;;;5056708;28;20477;-71
2021/10/30 12:04:46;;;;;;;13.53;9.33;;;;;;;;;;5057687;28;20499;-72
2021/10/30 12:07:15;;;;;;;15.23;9.93;;;;;;;;;;5058542;28;20460;-71
2021/10/30 12:09:45;;;;;;;15.63;10.67;;;;;;;;;;5056467;28;20445;-71
2021/10/30 12:12:25;;;;;;;18.53;10.40;;;;;;;;;;5056776;28;20903;-71
2021/10/30 12:15:08;;;;;;;21.83;12.47;;;;;;;;;;5056884;28;20741;-71
2021/10/30 12:17:50;;;;;;;11.30;7.53;;;;;;;;;;5057079;28;20584;-71
2021/10/30 12:20:19;;;;;;;13.27;9.40;;;;;;;;;;5058371;28;20457;-72
2021/10/30 12:22:52;;;;;;;14.00;10.87;;;;;;;;;;5057419;28;20449;-71
2021/10/30 12:25:30;;;;;;;12.43;9.60;;;;;;;;;;5059073;28;20479;-72
2021/10/30 12:28:02;;;;;;;18.73;11.53;;;;;;;;;;5057380;28;20446;-71
2021/10/30 12:30:32;;;;;;;13.40;9.47;;;;;;;;;;5058157;28;20457;-71
2021/10/30 12:33:12;;;;;;;16.63;12.90;;;;;;;;;;5058197;28;20437;-72
2021/10/30 12:35:41;;;;;;;15.97;11.03;;;;;;;;;;5055912;28;20469;-71
2021/10/30 12:38:18;;;;;;;15.70;11.63;;;;;;;;;;5056494;28;20484;-70
2021/10/30 12:40:49;;;;;;;19.10;12.60;;;;;;;;;;5057899;28;20548;-72
2021/10/30 12:43:22;;;;;;;17.93;13.03;;;;;;;;;;5058582;28;20853;-71
2021/10/30 12:45:57;;;;;;;19.43;13.50;;;;;;;;;;5055630;28;20492;-73
2021/10/30 12:48:32;;;;;;;25.40;14.37;;;;;;;;;;5055100;28;20514;-70
2021/10/30 12:51:01;;;;;;;14.13;10.73;;;;;;;;;;5056497;28;20449;-71
2021/10/30 12:53:34;;;;;;;22.33;16.30;;;;;;;;;;5056007;28;20502;-72
2021/10/30 12:56:33;;;;;;;15.37;11.80;;;;;;;;;;5056420;28;20544;-71
2021/10/30 12:59:27;;;;;;;17.00;11.83;;;;;;;;;;5056908;28;20477;-72
2021/10/30 13:02:07;;;;;;;20.43;13.70;;;;;;;;;;5056559;28;20854;-71
2021/10/30 13:04:42;;;;;;;20.30;14.00;;;;;;;;;;5039507;28;20533;-71
2021/10/30 13:07:19;;;;;;;18.77;13.60;;;;;;;;;;5047032;28;20477;-70
2021/10/30 13:09:55;;;;;;;19.83;14.37;;;;;;;;;;5056505;28;20950;-71
2021/10/30 13:12:25;;;;;;;20.33;15.20;;;;;;;;;;5056991;28;20457;-73
2021/10/30 13:15:05;;;;;;;25.93;17.60;;;;;;;;;;5058389;28;20461;-73
2021/10/30 13:17:41;;;;;;;30.93;19.10;;;;;;;;;;5057596;28;20456;-71
2021/10/30 13:20:10;;;;;;;20.00;15.60;;;;;;;;;;5057154;28;20529;-72
2021/10/30 13:22:38;;;;;;;19.33;15.23;;;;;;;;;;5057444;28;20456;-71
2021/10/30 13:25:07;;;;;;;22.33;15.20;;;;;;;;;;5043639;28;20808;-71
2021/10/30 13:27:46;;;;;;;26.17;17.20;;;;;;;;;;5037311;28;20462;-71
2021/10/30 13:30:17;;;;;;;19.57;15.13;;;;;;;;;;5037155;28;20474;-71
2021/10/30 13:32:46;;;;;;;27.23;16.80;;;;;;;;;;5035761;28;20454;-71
2021/10/30 13:35:15;;;;;;;24.23;15.83;;;;;;;;;;5038405;28;20465;-71
2021/10/30 13:37:45;;;;;;;26.97;18.50;;;;;;;;;;5054844;28;20480;-71
2021/10/30 13:40:15;;;;;;;21.20;17.07;;;;;;;;;;5055665;28;20453;-71
2021/10/30 13:42:44;;;;;;;24.93;19.73;;;;;;;;;;5055820;28;20461;-72
2021/10/30 13:45:12;;;;;;;28.37;17.57;;;;;;;;;;5055288;28;21122;-70
2021/10/30 13:47:40;;;;;;;34.23;23.40;;;;;;;;;;5055463;28;20504;-70
2021/10/30 13:50:22;;;;;;;28.73;20.00;;;;;;;;;;5056403;28;20457;-71
2021/10/30 13:52:53;;;;;;;25.30;17.80;;;;;;;;;;5056233;28;20461;-71
2021/10/30 13:55:22;;;;;;;28.67;17.93;;;;;;;;;;5058533;28;20550;-72
2021/10/30 13:58:13;;;;;;;31.53;22.30;;;;;;;;;;5057025;28;20461;-71
2021/10/30 14:00:42;;;;;;;24.47;19.53;;;;;;;;;;5037665;28;20520;-70
2021/10/30 14:03:13;;;;;;;30.20;21.00;;;;;;;;;;5035819;28;20561;-70
2021/10/30 14:05:43;;;;;;;40.10;21.03;;;;;;;;;;5045119;28;20454;-71
2021/10/30 14:08:23;;;;;;;24.77;18.40;;;;;;;;;;5057382;28;20458;-72
2021/10/30 14:10:52;;;;;;;28.90;22.33;;;;;;;;;;5054705;28;20457;-70
2021/10/30 14:13:22;;;;;;;27.37;20.77;;;;;;;;;;5056899;28;20458;-70
2021/10/30 14:15:50;;;;;;;30.50;22.90;;;;;;;;;;5056336;28;20580;-71
2021/10/30 14:18:27;;;;;;;30.83;22.63;;;;;;;;;;5055984;28;20489;-72
2021/10/30 14:21:03;;;;;;;30.70;21.00;;;;;;;;;;5055408;28;20460;-72
2021/10/30 14:23:37;;;;;;;30.90;20.27;;;;;;;;;;5057857;28;20523;-70
2021/10/30 14:29:01;;;;;;;24.50;18.80;;;;;;;;;;5046549;28;20445;-70
2021/10/30 14:31:30;;;;;;;29.77;20.90;;;;;;;;;;5055482;28;20437;-71
2021/10/30 14:34:01;;;;;;;35.27;22.70;;;;;;;;;;5057235;28;20822;-70
2021/10/30 14:36:58;;;;;;;28.60;20.33;;;;;;;;;;5060207;28;20440;-72
2021/10/30 14:42:49;;;;;;;29.30;21.80;;;;;;;;;;5067625;28;20887;-71
2021/10/30 14:45:24;;;;;;;29.67;20.70;;;;;;;;;;5061257;28;20481;-70
2021/10/30 14:48:06;;;;;;;29.60;22.63;;;;;;;;;;5055049;28;20449;-70
2021/10/30 14:50:49;;;;;;;30.53;22.07;;;;;;;;;;5055071;28;20818;-71
2021/10/30 14:53:39;;;;;;;;;;;;;;;;;;;;;
2021/10/30 14:59:22;;;;;;;39.10;25.43;;;;;;;;;;5049673;28;20477;-71
2021/10/30 15:01:53;;;;;;;32.17;23.23;;;;;;;;;;5055764;28;20512;-72
2021/10/30 15:07:40;;;;;;;35.23;22.57;;;;;;;;;;5041581;28;20880;-70
2021/10/30 15:10:24;;;;;;;28.93;22.90;;;;;;;;;;5057314;28;20553;-71
2021/10/30 15:12:54;;;;;;;42.90;26.47;;;;;;;;;;5056664;28;20451;-70
2021/10/30 15:18:24;;;;;;;37.80;24.70;;;;;;;;;;5052808;28;20444;-70